Time;durP1;ratioP1;P1;durP2;ratioP2;P2;SDS_P1;SDS_P2;PMS_P1;PMS_P2;Temp;Humidity;BMP_temperature;BMP_pressure;BME280_temperature;BME280_humidity;BME280_pressure;Samples;Min_cycle;Max_cycle;Signal;HPM_P1;HPM_P2
2021/01/10 00:00:52;;;;;;;22.17;9.18;;;;;;;-2.20;59.65;98446.41;10456372;28;20056;-56
2021/01/10 00:05:54;;;;;;;20.45;8.20;;;;;;;-2.13;59.64;98437.44;10448416;28;20037;-54
2021/01/10 00:10:56;;;;;;;25.25;7.70;;;;;;;-2.22;59.50;98443.09;10414566;28;20060;-54
2021/01/10 00:15:58;;;;;;;20.10;7.88;;;;;;;-2.23;59.28;98431.13;10415366;28;20037;-54
2021/01/10 00:21:00;;;;;;;16.63;6.97;;;;;;;-2.29;59.26;98436.59;10422053;28;20054;-53
2021/01/10 00:26:02;;;;;;;13.90;5.57;;;;;;;-2.34;59.43;98429.13;10425343;28;20045;-54
2021/01/10 00:31:04;;;;;;;17.87;7.63;;;;;;;-2.36;59.50;98431.78;10427737;28;20077;-54
2021/01/10 00:36:06;;;;;;;9.70;3.45;;;;;;;-2.38;59.34;98418.16;10422298;28;20091;-55
2021/01/10 00:41:09;;;;;;;13.63;4.45;;;;;;;-2.30;59.34;98428.06;10422186;28;20057;-53
2021/01/10 00:46:14;;;;;;;13.00;4.18;;;;;;;-2.29;59.37;98428.88;10423778;28;20070;-55
2021/01/10 00:51:16;;;;;;;19.30;7.75;;;;;;;-2.34;59.21;98429.97;10461888;28;20118;-53
2021/01/10 00:56:20;;;;;;;16.25;6.57;;;;;;;-2.46;59.62;98415.19;10461897;28;20100;-54
2021/01/10 01:01:21;;;;;;;;;;;;;;;-2.39;60.07;98431.94;10463113;28;20068;-60
2021/01/10 01:06:23;;;;;;;23.88;8.95;;;;;;;-2.32;59.65;98448.72;10463754;28;19925;-53
2021/01/10 01:11:28;;;;;;;;;;;;;;;-2.37;59.50;98439.56;10461000;28;20056;-56
2021/01/10 01:16:30;;;;;;;23.08;8.32;;;;;;;-2.43;59.50;98440.75;10461280;28;19979;-53
2021/01/10 01:21:31;;;;;;;21.00;7.60;;;;;;;-2.48;59.58;98442.72;10460294;28;20052;-55
2021/01/10 01:26:34;;;;;;;17.90;8.02;;;;;;;-2.41;59.82;98454.34;10460408;28;20051;-55
2021/01/10 01:31:36;;;;;;;20.27;7.83;;;;;;;-2.43;59.93;98458.75;10460042;28;20071;-55
2021/01/10 01:36:37;;;;;;;10.63;4.75;;;;;;;-2.41;59.93;98459.50;10459868;28;20056;-53
2021/01/10 01:41:40;;;;;;;12.20;4.18;;;;;;;-2.39;59.73;98462.84;10461363;28;20139;-52
2021/01/10 01:46:42;;;;;;;18.52;7.97;;;;;;;-2.30;59.98;98455.56;10459859;28;20083;-54
2021/01/10 01:51:45;;;;;;;19.15;6.57;;;;;;;-2.37;59.70;98463.59;10458983;28;20059;-56
2021/01/10 01:56:48;;;;;;;;;;;;;;;-2.40;60.24;98476.63;10459613;28;20139;-52
2021/01/10 02:01:49;;;;;;;15.30;7.00;;;;;;;-2.40;59.82;98471.47;10459080;28;19926;-55
2021/01/10 02:06:58;;;;;;;14.50;6.00;;;;;;;-2.47;59.85;98480.41;10460544;28;20045;-54
2021/01/10 02:12:03;;;;;;;18.15;6.30;;;;;;;-2.49;59.92;98471.94;10461897;28;20076;-54
2021/01/10 02:17:06;;;;;;;14.32;5.68;;;;;;;-2.46;59.89;98466.66;10458519;28;20045;-54
2021/01/10 02:22:11;;;;;;;11.50;5.43;;;;;;;-2.39;59.96;98462.84;10458664;28;20051;-54
2021/01/10 02:27:14;;;;;;;17.80;7.05;;;;;;;-2.47;59.78;98452.09;10457412;28;20047;-55
2021/01/10 02:32:18;;;;;;;21.23;8.07;;;;;;;-2.51;60.15;98468.63;10461479;28;20063;-61
2021/01/10 02:38:04;;;;;;;19.55;6.90;;;;;;;-2.42;60.11;98468.13;10460283;28;20607;-56
2021/01/10 02:43:12;;;;;;;17.63;6.40;;;;;;;-2.40;60.32;98466.31;10457244;28;20405;-56
2021/01/10 02:48:14;;;;;;;18.92;7.03;;;;;;;-2.35;60.19;98468.66;10458319;28;20056;-54
2021/01/10 02:53:16;;;;;;;19.30;7.10;;;;;;;-2.25;60.27;98461.25;10458521;28;20049;-54
2021/01/10 02:58:22;;;;;;;17.45;7.63;;;;;;;-2.27;60.41;98470.84;10456144;28;20110;-54
2021/01/10 03:03:24;;;;;;;16.80;5.38;;;;;;;-2.16;60.38;98466.75;10456863;28;20054;-54
2021/01/10 03:08:28;;;;;;;19.73;7.10;;;;;;;-2.20;60.36;98473.00;10456295;28;20519;-53
2021/01/10 03:13:32;;;;;;;14.02;5.32;;;;;;;-2.16;60.18;98473.66;10456943;28;20060;-54
2021/01/10 03:18:33;;;;;;;;;;;;;;;-2.12;60.58;98480.31;10458475;28;20481;-55
2021/01/10 03:23:35;;;;;;;11.77;6.35;;;;;;;-2.20;59.93;98482.47;10456846;28;19924;-55
2021/01/10 03:28:38;;;;;;;20.05;7.13;;;;;;;-2.18;60.12;98481.47;10459038;28;20088;-58
2021/01/10 03:33:45;;;;;;;15.43;5.63;;;;;;;-2.24;59.73;98492.09;10460642;28;20503;-55
2021/01/10 03:38:47;;;;;;;22.45;7.55;;;;;;;-2.26;60.23;98485.34;10458571;28;20385;-54
2021/01/10 03:43:49;;;;;;;18.55;8.63;;;;;;;-2.14;59.95;98500.16;10434390;28;20045;-54
2021/01/10 03:48:51;;;;;;;18.03;8.10;;;;;;;-2.12;60.05;98503.50;10435360;28;20049;-53
2021/01/10 03:53:53;;;;;;;12.52;5.68;;;;;;;-2.00;59.71;98497.69;10458947;28;20390;-53
2021/01/10 03:58:56;;;;;;;17.17;7.32;;;;;;;-1.99;59.17;98509.66;10466713;28;20110;-61
2021/01/10 04:03:57;;;;;;;18.50;7.63;;;;;;;-2.08;59.22;98504.97;10466404;28;20045;-54
2021/01/10 04:08:59;;;;;;;18.15;7.13;;;;;;;-2.21;59.56;98519.41;10465566;28;20371;-56
2021/01/10 04:14:02;;;;;;;17.27;6.70;;;;;;;-2.29;59.19;98513.84;10464572;28;20051;-53
2021/01/10 04:19:04;;;;;;;12.47;4.73;;;;;;;-2.48;59.30;98517.34;10462907;28;20130;-56
2021/01/10 04:24:06;;;;;;;17.25;7.70;;;;;;;-2.61;59.46;98517.16;10463688;28;20037;-54
2021/01/10 04:29:08;;;;;;;14.35;5.85;;;;;;;-2.66;59.42;98518.28;10499469;28;20056;-53
2021/01/10 04:34:10;;;;;;;16.02;5.65;;;;;;;-2.73;59.23;98530.63;10501314;28;20068;-54
2021/01/10 04:39:12;;;;;;;18.65;6.03;;;;;;;-2.76;59.14;98543.63;10503636;28;20499;-55
2021/01/10 04:44:15;;;;;;;16.27;6.93;;;;;;;-2.80;59.22;98540.38;10504337;28;20084;-54
2021/01/10 04:49:17;;;;;;;15.57;6.53;;;;;;;-2.76;59.26;98550.53;10480684;28;20437;-54
2021/01/10 04:54:22;;;;;;;21.85;7.30;;;;;;;-2.81;58.96;98549.00;10461594;28;20362;-54
2021/01/10 04:59:28;;;;;;;16.92;7.25;;;;;;;-2.82;59.01;98555.06;10461028;28;20057;-56
2021/01/10 05:04:30;;;;;;;19.52;7.00;;;;;;;-2.82;58.95;98560.19;10460539;28;20076;-54
2021/01/10 05:09:32;;;;;;;13.52;6.03;;;;;;;-2.81;58.76;98564.41;10485108;28;20139;-54
2021/01/10 05:14:35;;;;;;;16.40;5.07;;;;;;;-2.79;58.94;98578.06;10501329;28;20056;-54
2021/01/10 05:19:38;;;;;;;17.63;6.50;;;;;;;-2.84;58.56;98577.44;10487260;28;20052;-53
2021/01/10 05:24:41;;;;;;;13.48;5.88;;;;;;;-2.90;58.63;98585.44;10461045;28;20041;-58
2021/01/10 05:29:44;;;;;;;17.90;6.03;;;;;;;-3.02;58.62;98586.88;10461727;28;20490;-55
2021/01/10 05:34:58;;;;;;;13.45;5.13;;;;;;;-3.10;58.62;98590.72;10446788;28;20049;-56
2021/01/10 05:40:00;;;;;;;11.52;5.00;;;;;;;-3.12;58.66;98600.25;10424211;28;20115;-54
2021/01/10 05:45:04;;;;;;;15.07;7.22;;;;;;;-3.07;58.45;98606.00;10419978;28;20122;-55
2021/01/10 05:50:13;;;;;;;;;;;;;;;-3.09;58.34;98616.34;10482040;28;20063;-55
2021/01/10 05:55:15;;;;;;;12.63;5.43;;;;;;;-3.13;58.53;98624.28;10459511;28;19929;-54
2021/01/10 06:00:31;;;;;;;14.82;5.72;;;;;;;-3.17;58.65;98623.59;10458352;28;20090;-57
2021/01/10 06:05:33;;;;;;;17.05;5.45;;;;;;;-3.20;58.38;98630.59;10444569;28;20045;-53
2021/01/10 06:10:35;;;;;;;19.20;7.82;;;;;;;-3.19;58.61;98629.72;10416896;28;20053;-55
2021/01/10 06:15:38;;;;;;;16.30;6.03;;;;;;;-3.05;58.56;98638.47;10417785;28;20512;-53
2021/01/10 06:20:42;;;;;;;15.20;6.63;;;;;;;-2.94;58.54;98655.09;10439411;28;20086;-53
2021/01/10 06:25:45;;;;;;;17.23;6.45;;;;;;;-2.94;58.45;98645.66;10458910;28;20063;-56
2021/01/10 06:30:54;;;;;;;13.77;4.68;;;;;;;-2.90;58.35;98649.72;10460098;28;20056;-61
2021/01/10 06:36:02;;;;;;;26.85;8.32;;;;;;;-2.80;58.47;98661.28;10460898;28;20385;-55
2021/01/10 06:41:28;;;;;;;14.00;6.82;;;;;;;-2.75;58.44;98665.34;10457601;28;20045;-54
2021/01/10 06:46:31;;;;;;;17.55;6.10;;;;;;;-2.61;58.25;98652.69;10457579;28;20461;-53
2021/01/10 06:51:38;;;;;;;9.60;3.87;;;;;;;-2.58;58.20;98655.94;10458455;28;20049;-53
2021/01/10 06:56:46;;;;;;;15.10;6.10;;;;;;;-2.60;58.18;98675.75;10456238;28;20283;-54
2021/01/10 07:02:02;;;;;;;15.00;5.57;;;;;;;-2.60;58.41;98678.31;10459062;28;20144;-62
2021/01/10 07:07:04;;;;;;;13.00;6.50;;;;;;;-2.58;58.44;98685.97;10458107;28;20144;-55
2021/01/10 07:12:20;;;;;;;14.60;5.80;;;;;;;-2.45;58.21;98688.78;10459505;28;20366;-53
2021/01/10 07:17:24;;;;;;;16.60;7.28;;;;;;;-2.27;57.87;98682.75;10456991;28;20045;-58
2021/01/10 07:22:32;;;;;;;15.18;6.82;;;;;;;-2.28;58.07;98687.97;10458920;28;20103;-53
2021/01/10 07:27:35;;;;;;;18.05;7.47;;;;;;;-2.14;57.92;98690.69;10457096;28;20620;-54
2021/01/10 07:32:38;;;;;;;15.40;5.38;;;;;;;-1.96;57.93;98691.53;10466560;28;20409;-54
2021/01/10 07:37:40;;;;;;;16.23;6.43;;;;;;;-1.96;57.93;98687.19;10465666;28;20045;-53
2021/01/10 07:42:42;;;;;;;17.92;7.03;;;;;;;-1.94;57.85;98694.84;10464173;28;20045;-54
2021/01/10 07:47:48;;;;;;;16.30;6.75;;;;;;;-1.88;57.76;98695.38;10464834;28;20059;-54
2021/01/10 07:52:55;;;;;;;15.77;6.05;;;;;;;-1.81;57.62;98710.53;10464582;28;20076;-54
2021/01/10 07:58:17;;;;;;;14.73;5.82;;;;;;;-1.72;57.73;98704.91;10464625;28;20527;-51
2021/01/10 08:03:23;;;;;;;15.43;5.72;;;;;;;-1.56;57.56;98705.78;10462810;28;20049;-54
2021/01/10 08:08:39;;;;;;;17.05;6.18;;;;;;;-1.55;57.34;98711.75;10463184;28;20044;-54
2021/01/10 08:13:44;;;;;;;19.40;5.63;;;;;;;-1.62;57.26;98706.94;10464491;28;20056;-50
2021/01/10 08:18:46;;;;;;;15.32;6.50;;;;;;;-1.75;57.27;98721.34;10463431;28;20493;-52
2021/01/10 08:23:54;;;;;;;15.47;6.07;;;;;;;-1.68;57.25;98722.69;10462757;28;20478;-51
2021/01/10 08:29:00;;;;;;;7.57;2.97;;;;;;;-1.61;56.96;98723.22;10462834;28;20044;-51
2021/01/10 08:34:05;;;;;;;14.82;6.53;;;;;;;-1.62;57.16;98731.88;10460812;28;20065;-51
2021/01/10 08:39:09;;;;;;;16.10;7.25;;;;;;;-1.64;57.16;98741.41;10461438;28;20139;-52
2021/01/10 08:44:12;;;;;;;15.48;6.35;;;;;;;-1.60;56.74;98727.47;10459031;28;20059;-51
2021/01/10 08:49:19;;;;;;;19.92;6.95;;;;;;;-1.72;57.13;98735.84;10458559;28;20098;-52
2021/01/10 08:54:23;;;;;;;16.90;7.32;;;;;;;-1.67;56.96;98728.69;10460554;28;20048;-50
2021/01/10 08:59:35;;;;;;;17.33;5.38;;;;;;;-1.62;56.86;98729.28;10462131;28;20060;-51
2021/01/10 09:04:41;;;;;;;12.88;5.60;;;;;;;-1.68;56.90;98742.50;10450326;28;20048;-54
2021/01/10 09:09:47;;;;;;;14.45;6.43;;;;;;;-1.62;56.89;98737.03;10463104;28;20144;-51
2021/01/10 09:14:53;;;;;;;15.40;5.90;;;;;;;-1.43;57.04;98732.59;10465926;28;20052;-61
2021/01/10 09:20:01;;;;;;;20.27;7.07;;;;;;;-1.38;56.74;98742.66;10464015;28;20367;-53
2021/01/10 09:25:11;;;;;;;16.05;6.45;;;;;;;-1.32;56.46;98749.25;10461706;28;20045;-59
2021/01/10 09:30:14;;;;;;;15.13;6.35;;;;;;;-1.22;56.48;98746.09;10468368;28;20033;-55
2021/01/10 09:35:16;;;;;;;16.63;6.07;;;;;;;-1.05;56.48;98745.19;10463039;28;20162;-52
2021/01/10 09:40:19;;;;;;;14.27;6.03;;;;;;;-1.06;56.13;98753.88;10459912;28;20057;-52
2021/01/10 09:45:33;;;;;;;13.23;5.78;;;;;;;-1.11;56.16;98763.59;10460325;28;20187;-54
2021/01/10 09:50:36;;;;;;;14.98;6.38;;;;;;;-0.99;56.55;98762.09;10459850;28;20060;-52
2021/01/10 09:55:47;;;;;;;10.50;4.93;;;;;;;-0.97;56.22;98758.53;10463122;28;20052;-60
2021/01/10 10:00:56;;;;;;;12.75;5.20;;;;;;;-0.85;56.36;98763.97;10463875;28;20307;-51
2021/01/10 10:05:59;;;;;;;17.35;6.32;;;;;;;-0.63;56.19;98767.06;10461924;28;20044;-53
2021/01/10 10:11:00;;;;;;;12.32;6.18;;;;;;;-0.49;56.23;98754.22;10459292;28;20389;-52
2021/01/10 10:16:03;;;;;;;18.08;6.03;;;;;;;-0.34;55.77;98764.59;10458115;28;20102;-54
2021/01/10 10:21:06;;;;;;;15.38;6.50;;;;;;;-0.08;55.63;98756.25;10456416;28;20122;-51
2021/01/10 10:26:07;;;;;;;14.40;6.25;;;;;;;0.15;55.23;98767.00;10458244;28;20064;-51
2021/01/10 10:31:10;;;;;;;16.20;7.00;;;;;;;0.26;55.27;98769.00;10458361;28;20076;-54
2021/01/10 10:36:19;;;;;;;13.45;6.50;;;;;;;0.07;54.72;98774.38;10458206;28;20056;-54
2021/01/10 10:41:21;;;;;;;15.02;5.93;;;;;;;0.03;55.55;98775.47;10457839;28;20488;-55
2021/01/10 10:46:23;;;;;;;13.77;5.88;;;;;;;-0.15;55.17;98780.75;10457292;28;20041;-52
2021/01/10 10:51:30;;;;;;;17.80;6.80;;;;;;;-0.17;55.12;98781.75;10457414;28;20053;-51
2021/01/10 10:56:36;;;;;;;17.95;7.57;;;;;;;-0.31;54.95;98785.97;10456728;28;20566;-53
2021/01/10 11:01:39;;;;;;;18.90;6.78;;;;;;;-0.40;55.00;98785.59;10457957;28;20069;-53
2021/01/10 11:06:42;;;;;;;18.23;6.78;;;;;;;-0.49;55.32;98800.69;10462032;28;20072;-53
2021/01/10 11:11:45;;;;;;;28.40;7.47;;;;;;;-0.57;54.99;98800.28;10457810;28;20505;-52
2021/01/10 11:16:49;;;;;;;18.55;7.30;;;;;;;-0.65;55.25;98801.59;10455721;28;20429;-53
2021/01/10 11:21:52;;;;;;;;;;;;;;;-0.65;55.11;98802.44;10455981;28;20045;-52
2021/01/10 11:26:54;;;;;;;16.10;6.20;;;;;;;-0.78;54.23;98806.59;10455237;28;19943;-51
2021/01/10 11:31:56;;;;;;;15.63;6.22;;;;;;;-0.87;54.94;98817.41;10454626;28;20044;-53
2021/01/10 11:36:58;;;;;;;16.00;7.55;;;;;;;-0.85;54.72;98815.56;10456002;28;20469;-51
2021/01/10 11:42:00;;;;;;;19.00;7.50;;;;;;;-0.83;54.86;98818.88;10456114;28;20094;-51
2021/01/10 11:47:02;;;;;;;16.13;6.13;;;;;;;-0.85;55.01;98824.16;10458203;28;20056;-52
2021/01/10 11:52:05;;;;;;;16.02;7.18;;;;;;;-0.93;54.66;98823.69;10456324;28;20056;-51
2021/01/10 11:57:07;;;;;;;16.77;7.05;;;;;;;-1.08;55.27;98835.66;10455708;28;20070;-50
2021/01/10 12:02:09;;;;;;;23.38;7.25;;;;;;;-1.12;54.84;98844.47;10455839;28;20087;-50
2021/01/10 12:07:11;;;;;;;15.63;6.65;;;;;;;-1.23;55.36;98851.91;10453344;28;20389;-53
2021/01/10 12:12:13;;;;;;;18.25;6.30;;;;;;;-1.26;55.18;98849.47;10452217;28;20045;-50
2021/01/10 12:17:15;;;;;;;15.35;7.00;;;;;;;-1.28;55.17;98843.59;10459551;28;20045;-53
2021/01/10 12:22:17;;;;;;;17.88;6.38;;;;;;;-1.16;55.13;98850.69;10460320;28;20441;-49
2021/01/10 12:27:19;;;;;;;16.25;7.15;;;;;;;-1.13;54.84;98854.88;10462681;28;20489;-56
2021/01/10 12:32:21;;;;;;;18.45;7.00;;;;;;;-1.07;54.89;98857.97;10460706;28;20049;-49
2021/01/10 12:37:24;;;;;;;14.98;6.60;;;;;;;-1.15;54.96;98865.25;10460366;28;20101;-52
2021/01/10 12:42:26;;;;;;;21.30;7.30;;;;;;;-1.02;54.86;98876.59;10462060;28;20051;-52
2021/01/10 12:47:28;;;;;;;18.95;8.75;;;;;;;-1.01;54.90;98880.03;10463893;28;20045;-52
2021/01/10 12:52:31;;;;;;;17.25;6.68;;;;;;;-1.13;54.57;98884.06;10461099;28;20549;-49
2021/01/10 12:57:32;;;;;;;25.20;8.87;;;;;;;-1.21;55.07;98875.88;10459791;28;20421;-55
2021/01/10 13:02:35;;;;;;;17.83;6.90;;;;;;;-1.24;54.54;98886.34;10468910;28;20061;-53
2021/01/10 13:07:39;;;;;;;18.77;7.28;;;;;;;-1.43;55.04;98891.59;10462063;28;20055;-51
2021/01/10 13:12:40;;;;;;;;;;;;;;;-1.43;55.26;98902.72;10460221;28;20045;-50
2021/01/10 13:17:42;;;;;;;18.00;8.00;;;;;;;-1.49;55.17;98900.44;10460005;28;19935;-51
2021/01/10 13:22:44;;;;;;;18.85;7.30;;;;;;;-1.63;55.67;98905.44;10457397;28;20501;-52
2021/01/10 13:27:46;;;;;;;23.15;8.50;;;;;;;-1.63;55.45;98915.75;10458363;28;20355;-51
2021/01/10 13:32:48;;;;;;;19.45;7.82;;;;;;;-1.41;54.80;98936.19;10460368;28;20074;-48
2021/01/10 13:37:50;;;;;;;19.40;7.85;;;;;;;-1.30;54.76;98935.63;10458309;28;20044;-49
2021/01/10 13:42:52;;;;;;;21.33;8.32;;;;;;;-1.27;54.61;98940.66;10458988;28;20496;-50
2021/01/10 13:47:54;;;;;;;18.98;8.18;;;;;;;-1.30;54.86;98941.63;10459410;28;20374;-50
2021/01/10 13:52:56;;;;;;;19.92;8.10;;;;;;;-1.28;54.84;98946.72;10458432;28;20059;-49
2021/01/10 13:57:58;;;;;;;18.50;8.85;;;;;;;-1.35;54.99;98943.63;10458052;28;20072;-49
2021/01/10 14:03:00;;;;;;;20.95;7.75;;;;;;;-1.37;54.96;98947.16;10455116;28;20061;-49
2021/01/10 14:08:04;;;;;;;21.27;8.73;;;;;;;-1.42;55.04;98948.25;10455914;28;20052;-50
2021/01/10 14:13:06;;;;;;;20.73;8.07;;;;;;;-1.45;54.92;98956.13;10458462;28;20048;-49
2021/01/10 14:18:08;;;;;;;25.13;9.18;;;;;;;-1.70;55.34;98947.88;10456668;28;20143;-52
2021/01/10 14:23:11;;;;;;;16.52;7.75;;;;;;;-1.82;55.59;98954.41;10455596;28;20106;-51
2021/01/10 14:28:13;;;;;;;25.67;8.73;;;;;;;-1.91;55.65;98954.84;10456164;28;20103;-49
2021/01/10 14:33:15;;;;;;;18.73;9.35;;;;;;;-1.98;55.58;98964.59;10458418;28;20057;-51
2021/01/10 14:38:18;;;;;;;24.05;8.40;;;;;;;-2.00;55.39;98963.00;10457813;28;20103;-51
2021/01/10 14:43:19;;;;;;;18.00;6.18;;;;;;;-2.05;55.68;98959.81;10459525;28;20132;-52
2021/01/10 14:48:21;;;;;;;22.42;8.65;;;;;;;-2.06;55.86;98971.88;10460191;28;20053;-49
2021/01/10 14:53:24;;;;;;;23.70;8.52;;;;;;;-2.09;55.77;98966.84;10456854;28;20083;-49
2021/01/10 14:58:26;;;;;;;21.17;8.15;;;;;;;-2.10;55.63;98967.72;10461278;28;20114;-47
2021/01/10 15:03:27;;;;;;;23.77;9.38;;;;;;;-2.05;55.57;98972.69;10460877;28;20064;-49
2021/01/10 15:08:30;;;;;;;15.10;7.32;;;;;;;-2.04;55.66;98972.59;10455606;28;20584;-49
2021/01/10 15:13:32;;;;;;;22.43;7.50;;;;;;;-2.11;55.62;98976.38;10457168;28;20064;-47
2021/01/10 15:18:33;;;;;;;20.15;8.13;;;;;;;-2.10;55.81;98978.03;10455656;28;20087;-48
2021/01/10 15:23:36;;;;;;;20.42;9.13;;;;;;;-2.10;55.74;98980.63;10454437;28;20080;-47
2021/01/10 15:28:38;;;;;;;20.13;7.60;;;;;;;-2.11;55.86;98986.69;10456532;28;20382;-47
2021/01/10 15:33:40;;;;;;;19.73;9.65;;;;;;;-2.06;55.75;98995.03;10455989;28;20155;-53
2021/01/10 15:38:43;;;;;;;19.42;8.20;;;;;;;-1.96;55.68;98993.72;10455842;28;20048;-49
2021/01/10 15:43:45;;;;;;;18.37;8.10;;;;;;;-2.08;55.60;99002.00;10455588;28;20074;-47
2021/01/10 15:48:47;;;;;;;16.02;6.80;;;;;;;-2.09;55.76;99001.16;10456307;28;20074;-48
2021/01/10 15:53:50;;;;;;;18.30;5.60;;;;;;;-2.15;55.80;98995.44;10501604;28;20062;-49
2021/01/10 15:58:52;;;;;;;18.25;7.93;;;;;;;-2.12;55.77;99001.28;10479384;28;20140;-49
2021/01/10 16:03:54;;;;;;;18.17;7.25;;;;;;;-2.10;55.60;99004.63;10461622;28;20098;-47
2021/01/10 16:08:57;;;;;;;20.00;8.40;;;;;;;-2.02;55.69;99014.59;10464041;28;20099;-48
2021/01/10 16:13:59;;;;;;;15.90;6.70;;;;;;;-1.91;55.56;99022.69;10463568;28;20053;-48
2021/01/10 16:19:01;;;;;;;19.33;6.82;;;;;;;-1.89;55.16;99017.44;10462885;28;20063;-48
2021/01/10 16:24:04;;;;;;;20.08;9.27;;;;;;;-2.00;55.34;99025.69;10463349;28;20478;-47
2021/01/10 16:29:06;;;;;;;;;;;;;;;-2.07;55.59;99016.53;10463211;28;20136;-48
2021/01/10 16:34:07;;;;;;;24.27;8.98;;;;;;;-2.11;55.68;99008.09;10461979;28;19979;-47
2021/01/10 16:39:10;;;;;;;15.40;7.00;;;;;;;-2.13;55.53;99016.81;10462481;28;20111;-47
2021/01/10 16:44:14;;;;;;;17.80;6.10;;;;;;;-2.37;55.83;99019.56;10464752;28;20048;-48
2021/01/10 16:49:16;;;;;;;16.48;7.65;;;;;;;-2.43;55.85;99027.56;10466905;28;20072;-48
2021/01/10 16:54:19;;;;;;;17.33;7.05;;;;;;;-2.51;55.97;99027.03;10464625;28;20083;-47
2021/01/10 16:59:21;;;;;;;17.52;7.63;;;;;;;-2.57;56.11;99032.44;10452074;28;20053;-48
2021/01/10 17:04:23;;;;;;;16.25;7.40;;;;;;;-2.59;56.33;99042.78;10460168;28;20477;-47
2021/01/10 17:09:26;;;;;;;14.63;7.95;;;;;;;-2.59;56.11;99042.78;10461596;28;20468;-49
2021/01/10 17:14:28;;;;;;;17.83;7.53;;;;;;;-2.56;55.98;99042.66;10464154;28;20088;-49
2021/01/10 17:19:30;;;;;;;16.08;6.40;;;;;;;-2.52;56.01;99045.97;10463271;28;20072;-48
2021/01/10 17:24:33;;;;;;;22.40;8.52;;;;;;;-2.60;56.14;99045.44;10463276;28;20040;-54
2021/01/10 17:29:35;;;;;;;20.20;7.90;;;;;;;-2.60;55.77;99042.88;10466037;28;20045;-47
2021/01/10 17:34:36;;;;;;;18.13;7.05;;;;;;;-2.59;55.96;99047.09;10461877;28;20079;-48
2021/01/10 17:39:39;;;;;;;18.95;7.03;;;;;;;-2.68;56.14;99047.47;10463995;28;20156;-47
2021/01/10 17:44:40;;;;;;;16.37;6.93;;;;;;;-2.76;56.13;99057.28;10461926;28;20045;-47
2021/01/10 17:49:42;;;;;;;15.00;5.38;;;;;;;-2.67;56.27;99054.31;10458932;28;20044;-46
2021/01/10 17:54:45;;;;;;;15.65;4.95;;;;;;;-2.53;56.12;99061.44;10459449;28;20051;-48
2021/01/10 17:59:47;;;;;;;17.35;6.45;;;;;;;-2.48;55.72;99070.66;10457926;28;20151;-48
2021/01/10 18:04:48;;;;;;;19.00;6.45;;;;;;;-2.48;55.81;99080.94;10459571;28;20048;-46
2021/01/10 18:09:51;;;;;;;14.23;6.25;;;;;;;-2.43;55.93;99078.16;10459049;28;20118;-48
2021/01/10 18:14:54;;;;;;;14.77;7.70;;;;;;;-2.36;55.97;99080.44;10459136;28;20098;-48
2021/01/10 18:19:55;;;;;;;18.13;8.47;;;;;;;-2.39;55.81;99090.84;10458345;28;20095;-48
2021/01/10 18:24:58;;;;;;;16.58;7.22;;;;;;;-2.29;55.52;99091.31;10457248;28;20068;-47
2021/01/10 18:30:00;;;;;;;16.70;7.20;;;;;;;-2.44;55.55;99099.66;10457579;28;20059;-48
2021/01/10 18:35:02;;;;;;;16.63;6.40;;;;;;;-2.56;55.99;99116.44;10463597;28;20049;-62
2021/01/10 18:40:06;;;;;;;16.75;6.78;;;;;;;-2.68;56.16;99119.53;10460007;28;20048;-48
2021/01/10 18:45:08;;;;;;;15.82;6.82;;;;;;;-2.68;55.92;99125.53;10457272;28;20045;-46
2021/01/10 18:50:12;;;;;;;16.27;6.53;;;;;;;-2.65;55.56;99127.13;10457709;28;20416;-48
2021/01/10 18:55:15;;;;;;;15.35;5.88;;;;;;;-2.67;55.74;99127.19;10456938;28;20056;-47
2021/01/10 19:00:18;;;;;;;21.77;6.85;;;;;;;-2.68;55.72;99132.38;10455932;28;20104;-48
2021/01/10 19:05:20;;;;;;;17.75;7.05;;;;;;;-2.69;55.74;99148.72;10456843;28;20490;-47
2021/01/10 19:10:23;;;;;;;13.57;6.95;;;;;;;-2.75;55.63;99143.84;10454019;28;20472;-47
2021/01/10 19:15:25;;;;;;;25.85;7.65;;;;;;;-2.78;55.47;99144.78;10456115;28;20053;-48
2021/01/10 19:20:26;;;;;;;15.30;5.78;;;;;;;-2.79;55.58;99146.53;10453715;28;20131;-51
2021/01/10 19:25:29;;;;;;;15.20;6.65;;;;;;;-2.75;55.44;99141.25;10454462;28;20100;-48
2021/01/10 19:30:31;;;;;;;15.02;5.75;;;;;;;-2.82;55.54;99148.38;10455448;28;20126;-48
2021/01/10 19:35:32;;;;;;;18.58;7.57;;;;;;;-2.91;55.72;99157.28;10455954;28;20367;-49
2021/01/10 19:40:36;;;;;;;14.50;6.57;;;;;;;-2.92;55.70;99147.91;10454959;28;20139;-47
2021/01/10 19:45:38;;;;;;;13.25;6.63;;;;;;;-2.90;55.72;99143.53;10441624;28;20401;-49
2021/01/10 19:50:39;;;;;;;15.05;5.97;;;;;;;-2.91;55.77;99152.16;10452734;28;20128;-49
2021/01/10 19:55:42;;;;;;;18.08;6.90;;;;;;;-2.97;55.68;99143.84;10455929;28;20132;-48
2021/01/10 20:00:44;;;;;;;14.27;5.57;;;;;;;-3.03;55.93;99150.06;10455447;28;20487;-49
2021/01/10 20:05:45;;;;;;;19.13;7.13;;;;;;;-2.94;55.87;99149.69;10455912;28;20046;-49
2021/01/10 20:10:48;;;;;;;19.42;7.18;;;;;;;-2.89;55.77;99158.09;10488195;28;20143;-50
2021/01/10 20:15:52;;;;;;;15.83;5.53;;;;;;;-2.76;55.39;99167.88;10458142;28;20045;-49
2021/01/10 20:20:53;;;;;;;17.75;8.43;;;;;;;-2.72;55.06;99162.56;10459438;28;20056;-48
2021/01/10 20:25:56;;;;;;;22.13;7.78;;;;;;;-2.90;55.40;99161.53;10455228;28;20052;-48
2021/01/10 20:30:58;;;;;;;22.27;8.87;;;;;;;-2.91;55.68;99164.19;10454652;28;20055;-48
2021/01/10 20:35:59;;;;;;;21.55;8.25;;;;;;;-2.89;55.41;99157.25;10455207;28;20056;-48
2021/01/10 20:41:04;;;;;;;23.08;8.95;;;;;;;-2.96;55.46;99166.09;10462200;28;20056;-48
2021/01/10 20:46:06;;;;;;;25.52;9.02;;;;;;;-2.96;55.70;99166.91;10458885;28;20069;-48
2021/01/10 20:51:07;;;;;;;22.48;10.15;;;;;;;-2.87;55.59;99171.69;10462589;28;20049;-49
2021/01/10 20:56:11;;;;;;;28.15;11.00;;;;;;;-2.79;55.03;99179.97;10461826;28;20056;-48
2021/01/10 21:01:13;;;;;;;22.20;9.88;;;;;;;-2.74;54.95;99179.81;10463147;28;20057;-49
2021/01/10 21:06:15;;;;;;;28.30;11.88;;;;;;;-2.75;55.03;99185.00;10462005;28;20068;-48
2021/01/10 21:11:20;;;;;;;29.92;10.88;;;;;;;-2.71;55.10;99176.25;10461096;28;20060;-50
2021/01/10 21:16:26;;;;;;;22.45;9.63;;;;;;;-2.79;55.31;99174.00;10460643;28;20040;-48
2021/01/10 21:21:37;;;;;;;21.98;8.68;;;;;;;-2.79;55.34;99179.97;10460670;28;20048;-49
2021/01/10 21:26:40;;;;;;;25.73;9.73;;;;;;;-2.83;55.26;99173.28;10461074;28;20049;-49
2021/01/10 21:31:41;;;;;;;22.02;8.20;;;;;;;-2.80;55.16;99177.47;10459669;28;20059;-48
2021/01/10 21:36:43;;;;;;;27.73;10.38;;;;;;;-2.83;55.22;99178.41;10460413;28;20484;-50
2021/01/10 21:41:46;;;;;;;19.95;9.68;;;;;;;-2.83;55.23;99178.41;10459128;28;20055;-49
2021/01/10 21:46:48;;;;;;;27.95;11.25;;;;;;;-2.84;55.02;99181.88;10458954;28;20111;-47
2021/01/10 21:51:49;;;;;;;34.08;10.48;;;;;;;-2.90;55.06;99178.69;10459672;28;20486;-48
2021/01/10 21:56:52;;;;;;;24.58;8.55;;;;;;;-2.87;55.50;99182.00;10458771;28;20045;-48
2021/01/10 22:01:54;;;;;;;22.37;9.47;;;;;;;-2.81;55.07;99180.91;10458377;28;20072;-49
2021/01/10 22:06:55;;;;;;;21.33;9.23;;;;;;;-2.66;54.98;99182.88;10463370;28;20044;-58
2021/01/10 22:11:58;;;;;;;28.98;11.30;;;;;;;-2.70;54.54;99186.50;10460802;28;20053;-49
2021/01/10 22:17:00;;;;;;;31.47;11.27;;;;;;;-2.55;54.38;99187.63;10457741;28;20488;-49
2021/01/10 22:22:01;;;;;;;25.23;11.30;;;;;;;-2.70;54.74;99199.34;10457567;28;20053;-48
2021/01/10 22:27:04;;;;;;;28.35;10.82;;;;;;;-2.79;54.55;99195.41;10457760;28;20381;-49
2021/01/10 22:32:06;;;;;;;19.13;8.75;;;;;;;-2.95;55.15;99193.50;10457424;28;20136;-49
2021/01/10 22:37:08;;;;;;;24.33;9.93;;;;;;;-2.81;54.87;99202.31;10459185;28;20473;-54
2021/01/10 22:42:10;;;;;;;30.67;11.38;;;;;;;-2.74;54.79;99200.38;10458920;28;20056;-49
2021/01/10 22:47:12;;;;;;;18.23;6.47;;;;;;;-2.78;54.76;99191.91;10457757;28;20041;-48
2021/01/10 22:52:14;;;;;;;27.85;11.43;;;;;;;-2.91;54.85;99201.03;10457763;28;20405;-51
2021/01/10 22:57:16;;;;;;;23.75;9.27;;;;;;;-3.05;55.06;99192.97;10457300;28;20070;-48
2021/01/10 23:02:18;;;;;;;25.73;10.77;;;;;;;-2.95;54.85;99196.91;10455363;28;20126;-48
2021/01/10 23:07:20;;;;;;;21.73;9.77;;;;;;;-2.94;54.61;99195.16;10421272;28;20103;-48
2021/01/10 23:12:23;;;;;;;26.77;10.27;;;;;;;-2.98;54.89;99204.72;10416027;28;20053;-49
2021/01/10 23:17:25;;;;;;;28.07;10.33;;;;;;;-2.93;54.90;99207.94;10421111;28;20386;-49